sensor_id;sensor_type;location;lat;lon;timestamp;P1;durP1;ratioP1;P2;durP2;ratioP2
59167;SDS011;44948;55.046;73.266;2023-02-13T00:00:00;107.82;;;29.85;;
59167;SDS011;44948;55.046;73.266;2023-02-13T00:01:45;108.70;;;31.23;;
59167;SDS011;44948;55.046;73.266;2023-02-13T00:03:27;78.78;;;27.48;;
59167;SDS011;44948;55.046;73.266;2023-02-13T00:05:09;100.60;;;31.48;;
59167;SDS011;44948;55.046;73.266;2023-02-13T00:06:51;94.80;;;30.08;;
59167;SDS011;44948;55.046;73.266;2023-02-13T00:08:33;77.78;;;23.65;;
59167;SDS011;44948;55.046;73.266;2023-02-13T00:10:15;87.60;;;26.67;;
59167;SDS011;44948;55.046;73.266;2023-02-13T00:11:57;83.25;;;28.30;;
59167;SDS011;44948;55.046;73.266;2023-02-13T00:13:39;98.95;;;30.70;;
59167;SDS011;44948;55.046;73.266;2023-02-13T00:15:21;91.65;;;29.48;;
59167;SDS011;44948;55.046;73.266;2023-02-13T00:17:03;75.38;;;26.38;;
59167;SDS011;44948;55.046;73.266;2023-02-13T00:18:45;58.70;;;19.80;;
59167;SDS011;44948;55.046;73.266;2023-02-13T00:20:27;82.05;;;25.92;;
59167;SDS011;44948;55.046;73.266;2023-02-13T00:22:09;75.50;;;21.50;;
59167;SDS011;44948;55.046;73.266;2023-02-13T00:23:50;49.33;;;14.55;;
59167;SDS011;44948;55.046;73.266;2023-02-13T00:25:32;82.25;;;24.75;;
59167;SDS011;44948;55.046;73.266;2023-02-13T00:27:14;72.05;;;22.83;;
59167;SDS011;44948;55.046;73.266;2023-02-13T00:28:56;78.82;;;23.38;;
59167;SDS011;44948;55.046;73.266;2023-02-13T00:30:39;61.10;;;19.10;;
59167;SDS011;44948;55.046;73.266;2023-02-13T00:32:21;49.05;;;15.07;;
59167;SDS011;44948;55.046;73.266;2023-02-13T00:34:03;60.55;;;19.02;;
59167;SDS011;44948;55.046;73.266;2023-02-13T00:35:45;75.72;;;25.20;;
59167;SDS011;44948;55.046;73.266;2023-02-13T00:37:26;68.68;;;23.88;;
59167;SDS011;44948;55.046;73.266;2023-02-13T00:39:10;69.10;;;22.83;;
59167;SDS011;44948;55.046;73.266;2023-02-13T00:40:52;63.25;;;21.42;;
59167;SDS011;44948;55.046;73.266;2023-02-13T00:42:34;45.30;;;16.10;;
59167;SDS011;44948;55.046;73.266;2023-02-13T00:44:15;38.53;;;13.70;;
59167;SDS011;44948;55.046;73.266;2023-02-13T00:45:57;62.92;;;20.02;;
59167;SDS011;44948;55.046;73.266;2023-02-13T00:47:39;54.90;;;17.35;;
59167;SDS011;44948;55.046;73.266;2023-02-13T00:49:21;58.50;;;19.42;;
59167;SDS011;44948;55.046;73.266;2023-02-13T00:51:04;63.10;;;19.50;;
59167;SDS011;44948;55.046;73.266;2023-02-13T00:52:46;53.05;;;17.23;;
59167;SDS011;44948;55.046;73.266;2023-02-13T00:54:28;52.33;;;16.98;;
59167;SDS011;44948;55.046;73.266;2023-02-13T00:56:09;56.50;;;19.25;;
59167;SDS011;44948;55.046;73.266;2023-02-13T00:57:51;58.20;;;18.08;;
59167;SDS011;44948;55.046;73.266;2023-02-13T00:59:33;57.53;;;18.98;;
59167;SDS011;44948;55.046;73.266;2023-02-13T01:01:15;52.63;;;18.17;;
59167;SDS011;44948;55.046;73.266;2023-02-13T01:02:57;61.33;;;16.73;;
59167;SDS011;44948;55.046;73.266;2023-02-13T01:04:39;56.60;;;17.35;;
59167;SDS011;44948;55.046;73.266;2023-02-13T01:06:21;54.45;;;15.35;;
59167;SDS011;44948;55.046;73.266;2023-02-13T01:08:02;50.60;;;16.30;;
59167;SDS011;44948;55.046;73.266;2023-02-13T01:09:44;62.95;;;17.40;;
59167;SDS011;44948;55.046;73.266;2023-02-13T01:11:26;52.92;;;16.73;;
59167;SDS011;44948;55.046;73.266;2023-02-13T01:13:08;50.47;;;16.73;;
59167;SDS011;44948;55.046;73.266;2023-02-13T01:14:50;55.87;;;17.10;;
59167;SDS011;44948;55.046;73.266;2023-02-13T01:16:33;65.80;;;19.92;;
59167;SDS011;44948;55.046;73.266;2023-02-13T01:18:15;56.67;;;18.90;;
59167;SDS011;44948;55.046;73.266;2023-02-13T01:19:57;64.72;;;18.90;;
59167;SDS011;44948;55.046;73.266;2023-02-13T01:21:39;57.10;;;17.15;;
59167;SDS011;44948;55.046;73.266;2023-02-13T01:23:21;61.97;;;17.05;;
59167;SDS011;44948;55.046;73.266;2023-02-13T01:25:06;50.58;;;16.85;;
59167;SDS011;44948;55.046;73.266;2023-02-13T01:26:48;57.42;;;16.70;;
59167;SDS011;44948;55.046;73.266;2023-02-13T01:28:30;48.30;;;17.20;;
59167;SDS011;44948;55.046;73.266;2023-02-13T01:30:12;58.00;;;16.65;;
59167;SDS011;44948;55.046;73.266;2023-02-13T01:31:55;53.10;;;17.92;;
59167;SDS011;44948;55.046;73.266;2023-02-13T01:33:37;53.10;;;17.65;;
59167;SDS011;44948;55.046;73.266;2023-02-13T01:35:18;51.47;;;19.08;;
59167;SDS011;44948;55.046;73.266;2023-02-13T01:37:01;59.63;;;18.30;;
59167;SDS011;44948;55.046;73.266;2023-02-13T01:38:42;59.10;;;18.25;;
59167;SDS011;44948;55.046;73.266;2023-02-13T01:40:24;56.83;;;18.73;;
59167;SDS011;44948;55.046;73.266;2023-02-13T01:42:20;54.45;;;17.13;;
59167;SDS011;44948;55.046;73.266;2023-02-13T01:44:02;66.05;;;18.95;;
59167;SDS011;44948;55.046;73.266;2023-02-13T01:45:46;53.80;;;19.23;;
59167;SDS011;44948;55.046;73.266;2023-02-13T01:47:41;56.70;;;18.23;;
59167;SDS011;44948;55.046;73.266;2023-02-13T01:49:26;61.17;;;17.58;;
59167;SDS011;44948;55.046;73.266;2023-02-13T01:51:10;51.40;;;16.70;;
59167;SDS011;44948;55.046;73.266;2023-02-13T01:52:56;55.28;;;18.13;;
59167;SDS011;44948;55.046;73.266;2023-02-13T01:54:40;60.05;;;19.25;;
59167;SDS011;44948;55.046;73.266;2023-02-13T01:58:08;56.08;;;18.52;;
59167;SDS011;44948;55.046;73.266;2023-02-13T01:59:54;48.88;;;19.00;;
59167;SDS011;44948;55.046;73.266;2023-02-13T02:01:37;58.00;;;19.60;;
59167;SDS011;44948;55.046;73.266;2023-02-13T02:03:24;66.00;;;20.93;;
59167;SDS011;44948;55.046;73.266;2023-02-13T02:05:11;56.95;;;17.58;;
59167;SDS011;44948;55.046;73.266;2023-02-13T02:06:57;64.60;;;21.40;;
59167;SDS011;44948;55.046;73.266;2023-02-13T02:08:44;71.30;;;23.90;;
59167;SDS011;44948;55.046;73.266;2023-02-13T02:10:33;74.72;;;23.38;;
59167;SDS011;44948;55.046;73.266;2023-02-13T02:14:03;86.57;;;27.83;;
59167;SDS011;44948;55.046;73.266;2023-02-13T02:15:48;78.70;;;25.52;;
59167;SDS011;44948;55.046;73.266;2023-02-13T02:17:30;75.43;;;26.52;;
59167;SDS011;44948;55.046;73.266;2023-02-13T02:19:17;78.07;;;26.40;;
59167;SDS011;44948;55.046;73.266;2023-02-13T02:24:46;64.70;;;22.38;;
59167;SDS011;44948;55.046;73.266;2023-02-13T02:28:25;79.50;;;23.38;;
59167;SDS011;44948;55.046;73.266;2023-02-13T02:36:02;65.00;;;23.02;;
59167;SDS011;44948;55.046;73.266;2023-02-13T02:41:23;67.10;;;21.73;;
59167;SDS011;44948;55.046;73.266;2023-02-13T02:43:43;82.88;;;23.23;;
59167;SDS011;44948;55.046;73.266;2023-02-13T02:45:30;62.22;;;17.98;;
59167;SDS011;44948;55.046;73.266;2023-02-13T02:47:19;53.88;;;19.77;;
59167;SDS011;44948;55.046;73.266;2023-02-13T02:49:24;51.75;;;18.25;;
59167;SDS011;44948;55.046;73.266;2023-02-13T02:51:30;61.70;;;19.33;;
59167;SDS011;44948;55.046;73.266;2023-02-13T02:57:09;40.25;;;14.10;;
59167;SDS011;44948;55.046;73.266;2023-02-13T02:59:05;44.63;;;14.75;;
59167;SDS011;44948;55.046;73.266;2023-02-13T03:03:21;41.50;;;14.60;;
59167;SDS011;44948;55.046;73.266;2023-02-13T03:05:29;45.15;;;16.10;;
59167;SDS011;44948;55.046;73.266;2023-02-13T03:07:30;56.55;;;18.05;;
59167;SDS011;44948;55.046;73.266;2023-02-13T03:09:19;57.30;;;18.85;;
59167;SDS011;44948;55.046;73.266;2023-02-13T03:11:21;49.65;;;15.25;;
59167;SDS011;44948;55.046;73.266;2023-02-13T03:15:34;54.08;;;16.27;;
59167;SDS011;44948;55.046;73.266;2023-02-13T03:17:36;56.28;;;17.98;;
59167;SDS011;44948;55.046;73.266;2023-02-13T03:20:13;49.67;;;16.23;;
59167;SDS011;44948;55.046;73.266;2023-02-13T03:22:13;61.63;;;21.25;;
59167;SDS011;44948;55.046;73.266;2023-02-13T03:24:09;60.08;;;20.17;;
59167;SDS011;44948;55.046;73.266;2023-02-13T03:26:14;55.50;;;19.35;;
59167;SDS011;44948;55.046;73.266;2023-02-13T03:28:10;49.58;;;17.27;;
59167;SDS011;44948;55.046;73.266;2023-02-13T03:34:15;91.43;;;27.88;;
59167;SDS011;44948;55.046;73.266;2023-02-13T03:38:14;123.28;;;37.13;;
59167;SDS011;44948;55.046;73.266;2023-02-13T03:41:48;73.60;;;22.85;;
59167;SDS011;44948;55.046;73.266;2023-02-13T03:43:32;103.72;;;28.63;;
59167;SDS011;44948;55.046;73.266;2023-02-13T03:45:17;224.00;;;52.28;;
59167;SDS011;44948;55.046;73.266;2023-02-13T03:47:19;123.75;;;33.15;;
59167;SDS011;44948;55.046;73.266;2023-02-13T03:49:02;72.40;;;20.52;;
59167;SDS011;44948;55.046;73.266;2023-02-13T03:51:03;72.50;;;20.63;;
59167;SDS011;44948;55.046;73.266;2023-02-13T03:53:00;83.65;;;24.15;;
59167;SDS011;44948;55.046;73.266;2023-02-13T03:54:48;60.63;;;21.23;;
59167;SDS011;44948;55.046;73.266;2023-02-13T03:56:51;59.40;;;18.60;;
59167;SDS011;44948;55.046;73.266;2023-02-13T03:58:53;60.60;;;17.05;;
59167;SDS011;44948;55.046;73.266;2023-02-13T04:00:56;58.83;;;17.30;;
59167;SDS011;44948;55.046;73.266;2023-02-13T04:02:42;58.83;;;17.13;;
59167;SDS011;44948;55.046;73.266;2023-02-13T04:04:28;58.28;;;17.70;;
59167;SDS011;44948;55.046;73.266;2023-02-13T04:06:12;67.65;;;20.10;;
59167;SDS011;44948;55.046;73.266;2023-02-13T04:07:55;87.53;;;26.95;;
59167;SDS011;44948;55.046;73.266;2023-02-13T04:09:39;85.18;;;27.00;;
59167;SDS011;44948;55.046;73.266;2023-02-13T04:13:12;69.68;;;23.40;;
59167;SDS011;44948;55.046;73.266;2023-02-13T04:15:13;63.78;;;21.85;;
59167;SDS011;44948;55.046;73.266;2023-02-13T04:17:11;67.10;;;21.48;;
59167;SDS011;44948;55.046;73.266;2023-02-13T04:18:54;64.55;;;22.83;;
59167;SDS011;44948;55.046;73.266;2023-02-13T04:20:36;82.43;;;26.33;;
59167;SDS011;44948;55.046;73.266;2023-02-13T04:22:18;86.75;;;27.52;;
59167;SDS011;44948;55.046;73.266;2023-02-13T04:24:00;73.07;;;23.25;;
59167;SDS011;44948;55.046;73.266;2023-02-13T04:25:43;80.68;;;25.75;;
59167;SDS011;44948;55.046;73.266;2023-02-13T04:29:07;62.60;;;18.95;;
59167;SDS011;44948;55.046;73.266;2023-02-13T04:30:48;70.40;;;20.85;;
59167;SDS011;44948;55.046;73.266;2023-02-13T04:32:30;55.60;;;15.80;;
59167;SDS011;44948;55.046;73.266;2023-02-13T04:34:12;71.68;;;21.58;;
59167;SDS011;44948;55.046;73.266;2023-02-13T04:35:54;61.55;;;19.08;;
59167;SDS011;44948;55.046;73.266;2023-02-13T04:37:37;57.40;;;18.73;;
59167;SDS011;44948;55.046;73.266;2023-02-13T04:39:19;70.95;;;21.75;;
59167;SDS011;44948;55.046;73.266;2023-02-13T04:41:00;92.65;;;27.52;;
59167;SDS011;44948;55.046;73.266;2023-02-13T04:42:42;122.00;;;35.15;;
59167;SDS011;44948;55.046;73.266;2023-02-13T04:44:24;82.18;;;26.15;;
59167;SDS011;44948;55.046;73.266;2023-02-13T04:46:06;124.25;;;43.05;;
59167;SDS011;44948;55.046;73.266;2023-02-13T04:47:48;133.85;;;41.47;;
59167;SDS011;44948;55.046;73.266;2023-02-13T04:49:30;137.63;;;42.38;;
59167;SDS011;44948;55.046;73.266;2023-02-13T04:51:12;55.65;;;19.58;;
59167;SDS011;44948;55.046;73.266;2023-02-13T04:52:55;47.97;;;17.98;;
59167;SDS011;44948;55.046;73.266;2023-02-13T04:54:37;62.33;;;22.13;;
59167;SDS011;44948;55.046;73.266;2023-02-13T04:56:19;66.85;;;23.77;;
59167;SDS011;44948;55.046;73.266;2023-02-13T04:58:01;71.57;;;25.00;;
59167;SDS011;44948;55.046;73.266;2023-02-13T04:59:43;80.93;;;26.83;;
59167;SDS011;44948;55.046;73.266;2023-02-13T05:01:25;64.03;;;22.85;;
59167;SDS011;44948;55.046;73.266;2023-02-13T05:03:07;69.15;;;23.98;;
59167;SDS011;44948;55.046;73.266;2023-02-13T05:04:49;29.42;;;10.60;;
59167;SDS011;44948;55.046;73.266;2023-02-13T05:06:31;63.08;;;24.13;;
59167;SDS011;44948;55.046;73.266;2023-02-13T05:08:13;66.28;;;21.83;;
59167;SDS011;44948;55.046;73.266;2023-02-13T05:09:54;65.13;;;22.30;;
59167;SDS011;44948;55.046;73.266;2023-02-13T05:11:36;80.55;;;24.85;;
59167;SDS011;44948;55.046;73.266;2023-02-13T05:13:19;64.97;;;20.35;;
59167;SDS011;44948;55.046;73.266;2023-02-13T05:15:02;56.73;;;19.53;;
59167;SDS011;44948;55.046;73.266;2023-02-13T05:16:44;58.92;;;20.17;;
59167;SDS011;44948;55.046;73.266;2023-02-13T05:18:26;69.43;;;21.77;;
59167;SDS011;44948;55.046;73.266;2023-02-13T05:20:08;65.85;;;23.02;;
59167;SDS011;44948;55.046;73.266;2023-02-13T05:21:50;61.63;;;21.88;;
59167;SDS011;44948;55.046;73.266;2023-02-13T05:23:50;71.78;;;21.52;;
59167;SDS011;44948;55.046;73.266;2023-02-13T05:25:32;59.75;;;20.92;;
59167;SDS011;44948;55.046;73.266;2023-02-13T05:27:14;69.53;;;23.45;;
59167;SDS011;44948;55.046;73.266;2023-02-13T05:28:56;59.78;;;21.25;;
59167;SDS011;44948;55.046;73.266;2023-02-13T05:30:56;78.90;;;24.63;;
59167;SDS011;44948;55.046;73.266;2023-02-13T05:32:38;106.00;;;32.70;;
59167;SDS011;44948;55.046;73.266;2023-02-13T05:34:23;76.68;;;27.55;;
59167;SDS011;44948;55.046;73.266;2023-02-13T05:36:05;68.65;;;21.75;;
59167;SDS011;44948;55.046;73.266;2023-02-13T05:37:47;65.00;;;22.58;;
59167;SDS011;44948;55.046;73.266;2023-02-13T05:39:29;60.50;;;24.10;;
59167;SDS011;44948;55.046;73.266;2023-02-13T05:41:11;66.78;;;23.33;;
59167;SDS011;44948;55.046;73.266;2023-02-13T05:42:53;76.97;;;24.67;;
59167;SDS011;44948;55.046;73.266;2023-02-13T05:44:35;62.90;;;22.55;;
59167;SDS011;44948;55.046;73.266;2023-02-13T05:46:17;64.95;;;23.17;;
59167;SDS011;44948;55.046;73.266;2023-02-13T05:48:00;60.97;;;24.40;;
59167;SDS011;44948;55.046;73.266;2023-02-13T05:49:42;66.03;;;23.92;;
59167;SDS011;44948;55.046;73.266;2023-02-13T05:51:24;75.13;;;24.17;;
59167;SDS011;44948;55.046;73.266;2023-02-13T05:53:06;70.20;;;20.85;;
59167;SDS011;44948;55.046;73.266;2023-02-13T05:54:48;83.90;;;27.25;;
59167;SDS011;44948;55.046;73.266;2023-02-13T05:56:30;79.72;;;27.20;;
59167;SDS011;44948;55.046;73.266;2023-02-13T05:58:12;67.78;;;23.98;;
59167;SDS011;44948;55.046;73.266;2023-02-13T05:59:54;81.00;;;27.02;;
59167;SDS011;44948;55.046;73.266;2023-02-13T06:01:36;88.22;;;27.42;;
59167;SDS011;44948;55.046;73.266;2023-02-13T06:03:18;81.30;;;27.75;;
59167;SDS011;44948;55.046;73.266;2023-02-13T06:05:00;80.95;;;27.52;;
59167;SDS011;44948;55.046;73.266;2023-02-13T06:06:42;74.80;;;25.30;;
59167;SDS011;44948;55.046;73.266;2023-02-13T06:08:25;66.78;;;22.75;;
59167;SDS011;44948;55.046;73.266;2023-02-13T06:10:06;66.53;;;22.50;;
59167;SDS011;44948;55.046;73.266;2023-02-13T06:11:48;79.78;;;23.58;;
59167;SDS011;44948;55.046;73.266;2023-02-13T06:13:30;69.72;;;22.70;;
59167;SDS011;44948;55.046;73.266;2023-02-13T06:15:12;78.25;;;24.48;;
59167;SDS011;44948;55.046;73.266;2023-02-13T06:16:54;67.95;;;22.80;;
59167;SDS011;44948;55.046;73.266;2023-02-13T06:18:36;69.50;;;23.05;;
59167;SDS011;44948;55.046;73.266;2023-02-13T06:20:21;78.72;;;24.58;;
59167;SDS011;44948;55.046;73.266;2023-02-13T06:22:03;70.00;;;23.33;;
59167;SDS011;44948;55.046;73.266;2023-02-13T06:23:47;65.15;;;23.02;;
59167;SDS011;44948;55.046;73.266;2023-02-13T06:25:29;116.53;;;44.63;;
59167;SDS011;44948;55.046;73.266;2023-02-13T06:27:11;98.75;;;34.78;;
59167;SDS011;44948;55.046;73.266;2023-02-13T06:28:52;74.00;;;25.02;;
59167;SDS011;44948;55.046;73.266;2023-02-13T06:30:35;63.65;;;24.20;;
59167;SDS011;44948;55.046;73.266;2023-02-13T06:32:16;61.17;;;22.25;;
59167;SDS011;44948;55.046;73.266;2023-02-13T06:33:58;68.25;;;22.45;;
59167;SDS011;44948;55.046;73.266;2023-02-13T06:35:40;69.75;;;22.63;;
59167;SDS011;44948;55.046;73.266;2023-02-13T06:37:22;68.50;;;23.35;;
59167;SDS011;44948;55.046;73.266;2023-02-13T06:39:04;63.05;;;21.35;;
59167;SDS011;44948;55.046;73.266;2023-02-13T06:40:47;67.78;;;22.88;;
59167;SDS011;44948;55.046;73.266;2023-02-13T06:42:29;59.80;;;20.73;;
59167;SDS011;44948;55.046;73.266;2023-02-13T06:44:11;60.70;;;20.15;;
59167;SDS011;44948;55.046;73.266;2023-02-13T06:45:52;64.53;;;22.40;;
59167;SDS011;44948;55.046;73.266;2023-02-13T06:47:34;51.63;;;18.92;;
59167;SDS011;44948;55.046;73.266;2023-02-13T06:49:16;43.63;;;16.85;;
59167;SDS011;44948;55.046;73.266;2023-02-13T06:50:58;64.93;;;21.05;;
59167;SDS011;44948;55.046;73.266;2023-02-13T06:52:45;66.80;;;23.40;;
59167;SDS011;44948;55.046;73.266;2023-02-13T06:54:28;63.53;;;21.65;;
59167;SDS011;44948;55.046;73.266;2023-02-13T06:56:10;65.05;;;22.55;;
59167;SDS011;44948;55.046;73.266;2023-02-13T06:57:52;71.68;;;21.25;;
59167;SDS011;44948;55.046;73.266;2023-02-13T06:59:36;63.03;;;20.98;;
59167;SDS011;44948;55.046;73.266;2023-02-13T07:01:18;62.85;;;20.92;;
59167;SDS011;44948;55.046;73.266;2023-02-13T07:03:01;63.75;;;21.67;;
59167;SDS011;44948;55.046;73.266;2023-02-13T07:04:43;63.65;;;22.15;;
59167;SDS011;44948;55.046;73.266;2023-02-13T07:06:25;65.70;;;23.75;;
59167;SDS011;44948;55.046;73.266;2023-02-13T07:08:07;40.65;;;13.82;;
59167;SDS011;44948;55.046;73.266;2023-02-13T07:09:52;65.05;;;20.73;;
59167;SDS011;44948;55.046;73.266;2023-02-13T07:11:34;56.70;;;19.25;;
59167;SDS011;44948;55.046;73.266;2023-02-13T07:13:17;53.22;;;18.55;;
59167;SDS011;44948;55.046;73.266;2023-02-13T07:14:59;55.30;;;18.63;;
59167;SDS011;44948;55.046;73.266;2023-02-13T07:16:41;64.35;;;20.50;;
59167;SDS011;44948;55.046;73.266;2023-02-13T07:18:23;47.42;;;17.13;;
59167;SDS011;44948;55.046;73.266;2023-02-13T07:20:05;55.53;;;21.65;;
59167;SDS011;44948;55.046;73.266;2023-02-13T07:21:47;60.53;;;21.07;;
59167;SDS011;44948;55.046;73.266;2023-02-13T07:23:29;41.35;;;16.73;;
59167;SDS011;44948;55.046;73.266;2023-02-13T07:25:10;43.65;;;15.82;;
59167;SDS011;44948;55.046;73.266;2023-02-13T07:26:52;52.05;;;17.77;;
59167;SDS011;44948;55.046;73.266;2023-02-13T07:28:34;59.30;;;21.50;;
59167;SDS011;44948;55.046;73.266;2023-02-13T07:30:16;62.28;;;20.30;;
59167;SDS011;44948;55.046;73.266;2023-02-13T07:31:58;52.47;;;20.05;;
59167;SDS011;44948;55.046;73.266;2023-02-13T07:33:39;56.97;;;19.30;;
59167;SDS011;44948;55.046;73.266;2023-02-13T07:35:21;56.05;;;18.45;;
59167;SDS011;44948;55.046;73.266;2023-02-13T07:37:04;58.80;;;19.38;;
59167;SDS011;44948;55.046;73.266;2023-02-13T07:38:46;53.58;;;18.08;;
59167;SDS011;44948;55.046;73.266;2023-02-13T07:40:28;59.85;;;19.70;;
59167;SDS011;44948;55.046;73.266;2023-02-13T07:42:10;57.90;;;19.52;;
59167;SDS011;44948;55.046;73.266;2023-02-13T07:43:52;42.78;;;16.83;;
59167;SDS011;44948;55.046;73.266;2023-02-13T07:45:33;51.85;;;18.70;;
59167;SDS011;44948;55.046;73.266;2023-02-13T07:47:15;68.30;;;22.38;;
59167;SDS011;44948;55.046;73.266;2023-02-13T07:48:58;57.83;;;18.63;;
59167;SDS011;44948;55.046;73.266;2023-02-13T07:50:40;50.97;;;17.53;;
59167;SDS011;44948;55.046;73.266;2023-02-13T07:52:22;61.45;;;20.40;;
59167;SDS011;44948;55.046;73.266;2023-02-13T07:54:03;51.30;;;17.85;;
59167;SDS011;44948;55.046;73.266;2023-02-13T07:55:45;41.10;;;14.13;;
59167;SDS011;44948;55.046;73.266;2023-02-13T07:57:27;50.45;;;17.98;;
59167;SDS011;44948;55.046;73.266;2023-02-13T07:59:09;51.35;;;16.98;;
59167;SDS011;44948;55.046;73.266;2023-02-13T08:00:51;47.47;;;16.70;;
59167;SDS011;44948;55.046;73.266;2023-02-13T08:02:33;47.72;;;15.95;;
59167;SDS011;44948;55.046;73.266;2023-02-13T08:04:15;51.75;;;17.33;;
59167;SDS011;44948;55.046;73.266;2023-02-13T08:05:57;57.13;;;18.45;;
59167;SDS011;44948;55.046;73.266;2023-02-13T08:07:38;54.67;;;19.17;;
59167;SDS011;44948;55.046;73.266;2023-02-13T08:09:20;53.17;;;18.52;;
59167;SDS011;44948;55.046;73.266;2023-02-13T08:11:22;53.35;;;17.27;;
59167;SDS011;44948;55.046;73.266;2023-02-13T08:13:23;49.00;;;18.80;;
59167;SDS011;44948;55.046;73.266;2023-02-13T08:15:05;54.35;;;17.58;;
59167;SDS011;44948;55.046;73.266;2023-02-13T08:16:48;47.22;;;17.60;;
59167;SDS011;44948;55.046;73.266;2023-02-13T08:18:29;42.83;;;17.13;;
59167;SDS011;44948;55.046;73.266;2023-02-13T08:20:11;55.55;;;17.50;;
59167;SDS011;44948;55.046;73.266;2023-02-13T08:21:53;45.33;;;14.85;;
59167;SDS011;44948;55.046;73.266;2023-02-13T08:23:35;45.33;;;16.88;;
59167;SDS011;44948;55.046;73.266;2023-02-13T08:25:17;46.88;;;17.20;;
59167;SDS011;44948;55.046;73.266;2023-02-13T08:27:00;38.78;;;16.25;;
59167;SDS011;44948;55.046;73.266;2023-02-13T08:28:41;52.05;;;18.10;;
59167;SDS011;44948;55.046;73.266;2023-02-13T08:30:23;50.13;;;18.63;;
59167;SDS011;44948;55.046;73.266;2023-02-13T08:32:05;60.97;;;20.15;;
59167;SDS011;44948;55.046;73.266;2023-02-13T08:33:47;53.38;;;18.52;;
59167;SDS011;44948;55.046;73.266;2023-02-13T08:35:29;62.20;;;21.15;;
59167;SDS011;44948;55.046;73.266;2023-02-13T08:37:12;62.42;;;21.40;;
59167;SDS011;44948;55.046;73.266;2023-02-13T08:38:53;48.80;;;16.42;;
59167;SDS011;44948;55.046;73.266;2023-02-13T08:40:35;59.22;;;19.77;;
59167;SDS011;44948;55.046;73.266;2023-02-13T08:42:17;60.03;;;19.52;;
59167;SDS011;44948;55.046;73.266;2023-02-13T08:43:59;50.20;;;17.60;;
59167;SDS011;44948;55.046;73.266;2023-02-13T08:45:41;53.85;;;18.20;;
59167;SDS011;44948;55.046;73.266;2023-02-13T08:47:23;33.75;;;11.88;;
59167;SDS011;44948;55.046;73.266;2023-02-13T08:49:04;52.78;;;19.02;;
59167;SDS011;44948;55.046;73.266;2023-02-13T08:50:47;49.72;;;17.35;;
59167;SDS011;44948;55.046;73.266;2023-02-13T08:52:28;59.25;;;19.65;;
59167;SDS011;44948;55.046;73.266;2023-02-13T08:54:10;55.10;;;19.50;;
59167;SDS011;44948;55.046;73.266;2023-02-13T08:55:52;55.53;;;19.77;;
59167;SDS011;44948;55.046;73.266;2023-02-13T08:57:34;49.33;;;17.70;;
59167;SDS011;44948;55.046;73.266;2023-02-13T08:59:16;58.53;;;20.50;;
59167;SDS011;44948;55.046;73.266;2023-02-13T09:00:58;51.90;;;18.67;;
59167;SDS011;44948;55.046;73.266;2023-02-13T09:02:40;52.78;;;18.90;;
59167;SDS011;44948;55.046;73.266;2023-02-13T09:04:22;56.70;;;19.15;;
59167;SDS011;44948;55.046;73.266;2023-02-13T09:06:03;65.22;;;18.73;;
59167;SDS011;44948;55.046;73.266;2023-02-13T09:07:45;67.88;;;24.92;;
59167;SDS011;44948;55.046;73.266;2023-02-13T09:09:27;60.80;;;19.55;;
59167;SDS011;44948;55.046;73.266;2023-02-13T09:11:09;59.40;;;21.08;;
59167;SDS011;44948;55.046;73.266;2023-02-13T09:12:51;53.28;;;19.02;;
59167;SDS011;44948;55.046;73.266;2023-02-13T09:14:33;54.00;;;18.33;;
59167;SDS011;44948;55.046;73.266;2023-02-13T09:16:15;53.10;;;18.95;;
59167;SDS011;44948;55.046;73.266;2023-02-13T09:17:57;46.92;;;14.35;;
59167;SDS011;44948;55.046;73.266;2023-02-13T09:19:39;46.67;;;16.95;;
59167;SDS011;44948;55.046;73.266;2023-02-13T09:21:21;46.45;;;16.92;;
59167;SDS011;44948;55.046;73.266;2023-02-13T09:23:05;44.67;;;15.52;;
59167;SDS011;44948;55.046;73.266;2023-02-13T09:24:47;53.70;;;16.55;;
59167;SDS011;44948;55.046;73.266;2023-02-13T09:26:29;59.33;;;19.77;;
59167;SDS011;44948;55.046;73.266;2023-02-13T09:28:11;44.97;;;17.45;;
59167;SDS011;44948;55.046;73.266;2023-02-13T09:29:53;49.13;;;16.27;;
59167;SDS011;44948;55.046;73.266;2023-02-13T09:31:35;53.35;;;17.15;;
59167;SDS011;44948;55.046;73.266;2023-02-13T09:33:16;49.83;;;16.25;;
59167;SDS011;44948;55.046;73.266;2023-02-13T09:34:58;46.17;;;16.73;;
59167;SDS011;44948;55.046;73.266;2023-02-13T09:36:40;42.53;;;16.83;;
59167;SDS011;44948;55.046;73.266;2023-02-13T09:38:22;49.45;;;17.75;;
59167;SDS011;44948;55.046;73.266;2023-02-13T09:40:05;50.50;;;19.65;;
59167;SDS011;44948;55.046;73.266;2023-02-13T09:41:48;57.20;;;17.35;;
59167;SDS011;44948;55.046;73.266;2023-02-13T09:45:12;59.35;;;19.05;;
59167;SDS011;44948;55.046;73.266;2023-02-13T09:46:54;57.28;;;20.50;;
59167;SDS011;44948;55.046;73.266;2023-02-13T09:48:36;47.83;;;17.35;;
59167;SDS011;44948;55.046;73.266;2023-02-13T09:50:20;60.22;;;19.50;;
59167;SDS011;44948;55.046;73.266;2023-02-13T09:52:04;51.95;;;18.20;;
59167;SDS011;44948;55.046;73.266;2023-02-13T09:53:49;49.40;;;16.40;;
59167;SDS011;44948;55.046;73.266;2023-02-13T09:55:42;44.25;;;16.75;;
59167;SDS011;44948;55.046;73.266;2023-02-13T09:57:33;57.75;;;17.85;;
59167;SDS011;44948;55.046;73.266;2023-02-13T10:01:27;40.00;;;13.70;;
59167;SDS011;44948;55.046;73.266;2023-02-13T10:06:41;40.95;;;16.20;;
59167;SDS011;44948;55.046;73.266;2023-02-13T10:08:40;43.85;;;15.68;;
59167;SDS011;44948;55.046;73.266;2023-02-13T10:10:34;54.05;;;18.65;;
59167;SDS011;44948;55.046;73.266;2023-02-13T10:14:18;35.28;;;12.13;;
59167;SDS011;44948;55.046;73.266;2023-02-13T10:16:09;35.83;;;12.73;;
59167;SDS011;44948;55.046;73.266;2023-02-13T10:17:53;34.90;;;12.23;;
59167;SDS011;44948;55.046;73.266;2023-02-13T10:19:40;37.30;;;12.68;;
59167;SDS011;44948;55.046;73.266;2023-02-13T10:21:26;40.95;;;14.52;;
59167;SDS011;44948;55.046;73.266;2023-02-13T10:23:27;43.75;;;14.90;;
59167;SDS011;44948;55.046;73.266;2023-02-13T10:26:55;47.42;;;17.17;;
59167;SDS011;44948;55.046;73.266;2023-02-13T10:32:03;38.17;;;14.00;;
59167;SDS011;44948;55.046;73.266;2023-02-13T10:35:29;43.20;;;13.77;;
59167;SDS011;44948;55.046;73.266;2023-02-13T10:39:01;35.95;;;11.57;;
59167;SDS011;44948;55.046;73.266;2023-02-13T10:41:05;42.50;;;15.82;;
59167;SDS011;44948;55.046;73.266;2023-02-13T10:42:52;45.35;;;16.10;;
59167;SDS011;44948;55.046;73.266;2023-02-13T10:46:24;37.15;;;14.27;;
59167;SDS011;44948;55.046;73.266;2023-02-13T10:51:47;52.13;;;16.67;;
59167;SDS011;44948;55.046;73.266;2023-02-13T10:53:34;38.83;;;14.18;;
59167;SDS011;44948;55.046;73.266;2023-02-13T11:02:27;36.80;;;13.38;;
59167;SDS011;44948;55.046;73.266;2023-02-13T11:04:10;44.70;;;12.88;;
59167;SDS011;44948;55.046;73.266;2023-02-13T11:05:54;33.42;;;12.18;;
59167;SDS011;44948;55.046;73.266;2023-02-13T11:07:35;32.78;;;11.75;;
59167;SDS011;44948;55.046;73.266;2023-02-13T11:09:18;29.77;;;11.20;;
59167;SDS011;44948;55.046;73.266;2023-02-13T11:11:00;33.60;;;11.35;;